createdAt,value
2023-01-12T00:02:07.434Z,79.33
2023-01-12T00:04:36.009Z,78.52
2023-01-12T00:07:04.057Z,79.24
2023-01-12T00:09:31.974Z,78.84
2023-01-12T00:12:01.215Z,79.72
2023-01-12T00:14:29.364Z,81.30
2023-01-12T00:16:57.648Z,79.90
2023-01-12T00:19:25.547Z,79.38
2023-01-12T00:21:59.493Z,79.84
2023-01-12T00:24:29.145Z,80.61
2023-01-12T00:26:58.508Z,80.04
2023-01-12T00:29:28.967Z,80.61
2023-01-12T00:31:58.860Z,80.10
2023-01-12T00:34:29.402Z,80.97
2023-01-12T00:36:58.395Z,80.67
2023-01-12T00:39:26.230Z,80.52
2023-01-12T00:42:11.719Z,79.52
2023-01-12T00:44:58.429Z,80.06
2023-01-12T00:47:26.588Z,79.81
2023-01-12T00:49:54.481Z,79.97
2023-01-12T00:52:30.910Z,79.72
2023-01-12T00:55:00.145Z,79.94
2023-01-12T00:57:28.516Z,80.04
2023-01-12T01:00:00.022Z,80.08
2023-01-12T01:02:28.596Z,79.68
2023-01-12T01:04:57.153Z,79.35
2023-01-12T01:07:25.101Z,79.28
2023-01-12T01:09:53.101Z,79.48
2023-01-12T01:12:21.009Z,78.79
2023-01-12T01:14:49.587Z,80.25
2023-01-12T01:17:18.858Z,78.73
2023-01-12T01:19:46.725Z,79.26
2023-01-12T01:22:14.690Z,78.82
2023-01-12T01:24:42.931Z,78.57
2023-01-12T01:27:10.908Z,78.25
2023-01-12T01:29:38.793Z,79.34
2023-01-12T01:32:06.983Z,78.11
2023-01-12T01:34:37.179Z,77.18
2023-01-12T01:37:05.138Z,77.67
2023-01-12T01:39:33.030Z,77.43
2023-01-12T01:42:01.452Z,76.75
2023-01-12T01:44:49.852Z,77.69
2023-01-12T01:47:26.180Z,76.90
2023-01-12T01:49:58.664Z,76.44
2023-01-12T01:52:30.939Z,76.89
2023-01-12T01:55:02.270Z,76.95
2023-01-12T01:57:36.096Z,77.28
2023-01-12T02:00:07.100Z,77.13
2023-01-12T02:02:36.688Z,76.54
2023-01-12T02:05:06.801Z,76.67
2023-01-12T02:07:35.060Z,76.92
2023-01-12T02:10:03.686Z,75.90
2023-01-12T02:12:48.952Z,75.89
2023-01-12T02:15:34.469Z,76.31
2023-01-12T02:18:14.854Z,75.97
2023-01-12T02:20:51.853Z,75.28
2023-01-12T02:24:01.407Z,75.49
2023-01-12T02:27:13.993Z,74.91
2023-01-12T02:30:22.824Z,75.30
2023-01-12T02:33:03.531Z,75.44
2023-01-12T02:35:41.501Z,76.07
2023-01-12T02:38:18.441Z,76.51
2023-01-12T02:40:53.719Z,77.00
2023-01-12T02:43:27.049Z,77.94
2023-01-12T02:45:58.176Z,76.47
2023-01-12T02:48:32.311Z,77.13
2023-01-12T02:51:06.918Z,77.11
2023-01-12T02:53:43.118Z,77.57
2023-01-12T02:56:12.836Z,78.37
2023-01-12T02:58:46.787Z,78.71
2023-01-12T03:01:17.937Z,76.62
2023-01-12T03:03:48.970Z,78.30
2023-01-12T03:06:18.147Z,77.59
2023-01-12T03:08:48.901Z,77.83
2023-01-12T03:11:19.433Z,77.19
2023-01-12T03:13:50.779Z,76.76
2023-01-12T03:16:22.052Z,76.71
2023-01-12T03:18:56.194Z,76.01
2023-01-12T03:21:29.609Z,76.60
2023-01-12T03:24:03.260Z,77.67
2023-01-12T03:26:33.864Z,78.08
2023-01-12T03:29:08.972Z,76.95
2023-01-12T03:31:38.270Z,76.95
2023-01-12T03:34:07.711Z,76.10
2023-01-12T03:36:46.523Z,77.48
2023-01-12T03:39:21.271Z,75.91
2023-01-12T03:41:57.601Z,76.33
2023-01-12T03:44:38.806Z,77.21
2023-01-12T03:47:13.829Z,76.01
2023-01-12T03:49:47.945Z,76.92
2023-01-12T03:52:18.313Z,75.54
2023-01-12T03:54:48.333Z,75.52
2023-01-12T03:57:16.932Z,75.29
2023-01-12T03:59:45.168Z,74.00
2023-01-12T04:02:14.426Z,73.58
2023-01-12T04:04:43.717Z,74.93
2023-01-12T04:07:11.662Z,73.72
2023-01-12T04:09:39.580Z,74.10
2023-01-12T04:12:13.607Z,74.31
2023-01-12T04:14:43.091Z,74.65
2023-01-12T04:17:13.298Z,72.95
2023-01-12T04:19:42.894Z,73.77
2023-01-12T04:22:32.961Z,73.58
2023-01-12T04:25:00.866Z,74.07
2023-01-12T04:27:28.946Z,74.68
2023-01-12T04:29:57.487Z,74.54
2023-01-12T04:32:25.350Z,73.31
2023-01-12T04:34:54.584Z,75.49
2023-01-12T04:37:22.612Z,74.45
2023-01-12T04:39:50.472Z,73.70
2023-01-12T04:42:36.172Z,73.50
2023-01-12T04:45:04.167Z,74.54
2023-01-12T04:47:32.033Z,73.50
2023-01-12T04:50:01.270Z,74.45
2023-01-12T04:52:29.168Z,73.34
2023-01-12T04:54:57.125Z,72.91
2023-01-12T04:57:25.236Z,73.26
2023-01-12T04:59:53.198Z,73.00
2023-01-12T05:02:21.131Z,73.44
2023-01-12T05:04:49.359Z,72.98
2023-01-12T05:07:18.850Z,73.00
2023-01-12T05:10:04.238Z,72.30
2023-01-12T05:12:32.158Z,71.93
2023-01-12T05:15:00.065Z,71.98
2023-01-12T05:17:28.546Z,72.28
2023-01-12T05:19:56.433Z,72.10
2023-01-12T05:22:25.816Z,72.64
2023-01-12T05:24:53.785Z,72.83
2023-01-12T05:27:21.635Z,71.55
2023-01-12T05:29:49.560Z,72.38
2023-01-12T05:32:17.437Z,72.36
2023-01-12T05:34:45.487Z,71.46
2023-01-12T05:37:13.396Z,71.46
2023-01-12T05:39:42.696Z,71.44
2023-01-12T05:42:27.825Z,71.90
2023-01-12T05:44:55.714Z,70.51
2023-01-12T05:47:23.642Z,71.61
2023-01-12T05:49:51.583Z,71.20
2023-01-12T05:52:19.468Z,71.15
2023-01-12T05:54:48.765Z,70.20
2023-01-12T05:57:16.662Z,71.22
2023-01-12T05:59:44.588Z,71.51
2023-01-12T06:02:17.097Z,71.04
2023-01-12T06:04:46.345Z,71.44
2023-01-12T06:07:14.363Z,72.72
2023-01-12T06:09:42.316Z,70.98
2023-01-12T06:12:30.276Z,70.19
2023-01-12T06:14:58.278Z,70.02
2023-01-12T06:17:26.339Z,69.59
2023-01-12T06:19:54.450Z,69.73
2023-01-12T06:22:22.333Z,69.92
2023-01-12T06:24:50.228Z,69.94
2023-01-12T06:27:19.480Z,69.78
2023-01-12T06:29:47.613Z,69.50
2023-01-12T06:32:15.508Z,68.68
2023-01-12T06:34:43.485Z,69.17
2023-01-12T06:37:13.092Z,68.46
2023-01-12T06:39:41.035Z,69.57
2023-01-12T06:42:26.337Z,69.22
2023-01-12T06:44:56.295Z,69.16
2023-01-12T06:47:24.304Z,68.57
2023-01-12T06:49:52.885Z,69.39
2023-01-12T06:52:22.216Z,69.27
2023-01-12T06:54:50.101Z,69.09
2023-01-12T06:57:18.503Z,70.26
2023-01-12T06:59:46.947Z,69.49
2023-01-12T07:02:17.636Z,69.62
2023-01-12T07:04:45.623Z,69.44
2023-01-12T07:07:13.691Z,69.10
2023-01-12T07:09:41.607Z,69.16
2023-01-12T07:12:09.505Z,69.94
2023-01-12T07:14:37.384Z,68.57
2023-01-12T07:17:05.314Z,69.23
2023-01-12T07:19:34.552Z,69.73
2023-01-12T07:22:02.438Z,69.44
2023-01-12T07:24:31.595Z,69.29
2023-01-12T07:26:59.506Z,70.47
2023-01-12T07:29:27.336Z,70.28
2023-01-12T07:31:55.289Z,69.66
2023-01-12T07:34:23.486Z,69.48
2023-01-12T07:36:52.833Z,68.90
2023-01-12T07:39:20.909Z,69.63
2023-01-12T07:42:06.447Z,68.51
2023-01-12T07:44:34.381Z,69.06
2023-01-12T07:47:02.399Z,67.90
2023-01-12T07:49:30.326Z,68.73
2023-01-12T07:51:59.643Z,68.59
2023-01-12T07:54:27.630Z,68.36
2023-01-12T07:56:55.618Z,67.68
2023-01-12T07:59:23.456Z,67.96
2023-01-12T08:01:53.710Z,68.49
2023-01-12T08:04:22.333Z,67.56
2023-01-12T08:06:50.185Z,68.55
2023-01-12T08:09:19.408Z,68.24
2023-01-12T08:11:47.309Z,68.28
2023-01-12T08:14:25.276Z,68.82
2023-01-12T08:16:54.444Z,67.47
2023-01-12T08:19:25.790Z,68.03
2023-01-12T08:22:01.140Z,67.69
2023-01-12T08:24:34.792Z,67.18
2023-01-12T08:27:06.621Z,67.70
2023-01-12T08:29:41.124Z,67.37
2023-01-12T08:32:10.600Z,67.17
2023-01-12T08:34:40.742Z,67.87
2023-01-12T08:37:12.088Z,66.95
2023-01-12T08:39:41.644Z,67.70
2023-01-12T08:42:10.352Z,68.10
2023-01-12T08:44:38.743Z,67.50
2023-01-12T08:47:15.600Z,67.20
2023-01-12T08:49:43.870Z,67.52
2023-01-12T08:52:11.788Z,67.93
2023-01-12T08:54:41.281Z,66.53
2023-01-12T08:57:09.185Z,67.08
2023-01-12T08:59:37.509Z,66.99
2023-01-12T09:02:05.996Z,66.67
2023-01-12T09:04:34.005Z,67.74
2023-01-12T09:07:01.973Z,67.25
2023-01-12T09:09:29.968Z,66.46
2023-01-12T09:11:59.192Z,65.68
2023-01-12T09:14:27.154Z,66.19
2023-01-12T09:16:56.910Z,67.39
2023-01-12T09:19:24.920Z,66.07
2023-01-12T09:21:52.854Z,65.16
2023-01-12T09:24:20.834Z,66.16
2023-01-12T09:26:48.708Z,66.07
2023-01-12T09:29:18.001Z,64.76
2023-01-12T09:31:46.701Z,65.92
2023-01-12T09:34:14.684Z,65.85
2023-01-12T09:36:42.773Z,66.15
2023-01-12T09:39:26.220Z,64.85
2023-01-12T09:42:12.247Z,64.89
2023-01-12T09:45:01.347Z,64.58
2023-01-12T09:47:35.457Z,65.08
2023-01-12T09:50:09.484Z,64.16
2023-01-12T09:52:42.239Z,65.77
2023-01-12T09:55:15.942Z,64.06
2023-01-12T09:58:08.009Z,64.40
2023-01-12T10:00:37.366Z,63.65
2023-01-12T10:03:15.351Z,65.22
2023-01-12T10:05:47.958Z,63.73
2023-01-12T10:08:19.914Z,64.25
2023-01-12T10:11:03.693Z,64.19
2023-01-12T10:13:52.193Z,64.97
2023-01-12T10:16:28.649Z,63.45
2023-01-12T10:19:00.470Z,63.04
2023-01-12T10:21:30.546Z,63.02
2023-01-12T10:23:58.502Z,63.75
2023-01-12T10:26:32.487Z,63.22
2023-01-12T10:29:02.638Z,61.97
2023-01-12T10:31:32.060Z,61.72
2023-01-12T10:34:04.988Z,63.36
2023-01-12T10:36:33.871Z,62.30
2023-01-12T10:39:03.821Z,62.21
2023-01-12T10:41:32.822Z,64.38
2023-01-12T10:44:14.525Z,62.70
2023-01-12T10:46:43.977Z,63.58
2023-01-12T10:49:20.332Z,64.20
2023-01-12T10:51:55.125Z,63.12
2023-01-12T10:54:26.587Z,63.77
2023-01-12T10:56:58.340Z,64.18
2023-01-12T10:59:31.493Z,65.72
2023-01-12T11:02:15.626Z,67.30
2023-01-12T11:04:45.411Z,67.42
2023-01-12T11:07:15.188Z,67.31
2023-01-12T11:09:44.724Z,68.27
2023-01-12T11:12:25.288Z,70.59
2023-01-12T11:15:04.611Z,70.56
2023-01-12T11:17:49.653Z,71.80
2023-01-12T11:20:26.146Z,73.48
2023-01-12T11:22:57.463Z,70.69
2023-01-12T11:25:27.205Z,71.85
2023-01-12T11:27:59.609Z,71.08
2023-01-12T11:30:35.889Z,74.34
2023-01-12T11:33:11.299Z,73.17
2023-01-12T11:35:45.082Z,72.76
2023-01-12T11:38:15.076Z,74.80
2023-01-12T11:40:45.169Z,73.83
2023-01-12T11:43:42.546Z,73.02
2023-01-12T11:46:18.421Z,73.02
2023-01-12T11:48:53.284Z,72.86
2023-01-12T11:51:21.266Z,71.97
2023-01-12T11:53:49.266Z,72.61
2023-01-12T11:56:41.270Z,73.68
2023-01-12T11:59:18.928Z,74.47
2023-01-12T12:01:57.597Z,72.94
2023-01-12T12:04:40.988Z,72.37
2023-01-12T12:07:21.984Z,72.75
2023-01-12T12:10:18.961Z,72.99
2023-01-12T12:13:09.527Z,73.08
2023-01-12T12:15:44.198Z,71.53
2023-01-12T12:18:23.726Z,70.89
2023-01-12T12:21:07.973Z,72.21
2023-01-12T12:23:45.110Z,70.61
2023-01-12T12:26:22.817Z,68.92
2023-01-12T12:29:18.417Z,69.51
2023-01-12T12:31:58.570Z,70.18
2023-01-12T12:34:55.297Z,69.19
2023-01-12T12:37:39.139Z,68.00
2023-01-12T12:40:18.906Z,68.26
2023-01-12T12:43:19.351Z,69.20
2023-01-12T12:45:53.683Z,68.33
2023-01-12T12:48:25.071Z,68.43
2023-01-12T12:51:01.673Z,67.79
2023-01-12T12:53:35.495Z,66.94
2023-01-12T12:56:07.337Z,68.25
2023-01-12T12:58:44.157Z,67.37
2023-01-12T13:02:05.894Z,66.88
2023-01-12T13:05:04.806Z,66.72
2023-01-12T13:07:37.815Z,65.10
2023-01-12T13:10:24.793Z,67.12
2023-01-12T13:13:30.920Z,66.43
2023-01-12T13:16:41.798Z,66.35
2023-01-12T13:19:15.815Z,67.52
2023-01-12T13:21:59.431Z,66.80
2023-01-12T13:24:28.386Z,67.09
2023-01-12T13:27:00.463Z,66.80
2023-01-12T13:29:44.275Z,66.37
2023-01-12T13:32:34.473Z,67.27
2023-01-12T13:35:02.720Z,66.24
2023-01-12T13:37:40.426Z,66.75
2023-01-12T13:40:14.534Z,66.11
2023-01-12T13:43:03.273Z,67.60
2023-01-12T13:45:32.164Z,67.86
2023-01-12T13:48:00.604Z,67.64
2023-01-12T13:50:29.521Z,66.57
2023-01-12T13:52:59.081Z,68.25
2023-01-12T13:55:28.967Z,67.03
2023-01-12T13:58:01.155Z,66.87
2023-01-12T14:00:32.265Z,67.03
2023-01-12T14:03:02.993Z,66.52
2023-01-12T14:05:40.115Z,65.60
2023-01-12T14:08:39.637Z,66.46
2023-01-12T14:11:30.195Z,66.21
2023-01-12T14:14:32.999Z,66.15
2023-01-12T14:17:18.561Z,66.83
2023-01-12T14:19:51.315Z,66.03
2023-01-12T14:22:20.895Z,66.40
2023-01-12T14:24:48.800Z,68.08
2023-01-12T14:27:18.098Z,68.37
2023-01-12T14:29:47.375Z,66.34
2023-01-12T14:32:15.888Z,66.87
2023-01-12T14:34:52.292Z,66.23
2023-01-12T14:37:28.047Z,66.36
2023-01-12T14:39:56.985Z,67.98
2023-01-12T14:42:42.896Z,66.69
2023-01-12T14:45:44.072Z,66.31
2023-01-12T14:48:27.235Z,65.76
2023-01-12T14:51:03.730Z,67.20
2023-01-12T14:53:39.348Z,67.30
2023-01-12T14:56:09.880Z,66.99
2023-01-12T14:58:38.030Z,65.63
2023-01-12T15:01:08.060Z,67.04
2023-01-12T15:03:43.707Z,66.16
2023-01-12T15:06:16.017Z,66.21
2023-01-12T15:08:56.030Z,66.37
2023-01-12T15:11:32.918Z,66.67
2023-01-12T15:14:02.221Z,66.92
2023-01-12T15:16:49.093Z,66.23
2023-01-12T15:19:34.234Z,66.97
2023-01-12T15:22:19.904Z,66.12
2023-01-12T15:25:05.001Z,66.24
2023-01-12T15:27:32.949Z,66.99
2023-01-12T15:30:01.215Z,66.70
2023-01-12T15:32:46.722Z,65.77
2023-01-12T15:35:17.073Z,65.75
2023-01-12T15:37:45.197Z,66.08
2023-01-12T15:40:14.941Z,66.97
2023-01-12T15:42:43.276Z,66.20
2023-01-12T15:45:33.248Z,66.38
2023-01-12T15:48:02.829Z,66.74
2023-01-12T15:50:31.070Z,66.51
2023-01-12T15:53:00.925Z,66.17
2023-01-12T15:55:31.215Z,67.00
2023-01-12T15:57:59.154Z,66.39
2023-01-12T16:00:27.148Z,65.35
2023-01-12T16:02:55.043Z,66.24
2023-01-12T16:05:26.336Z,67.43
2023-01-12T16:07:54.595Z,66.65
2023-01-12T16:10:23.757Z,66.50
2023-01-12T16:12:51.630Z,66.44
2023-01-12T16:15:23.153Z,66.44
2023-01-12T16:17:52.450Z,66.98
2023-01-12T16:20:21.573Z,66.58
2023-01-12T16:22:50.990Z,66.14
2023-01-12T16:25:19.520Z,66.75
2023-01-12T16:27:47.425Z,66.85
2023-01-12T16:30:16.869Z,67.83
2023-01-12T16:32:47.282Z,67.89
2023-01-12T16:35:15.987Z,66.77
2023-01-12T16:37:44.641Z,66.83
2023-01-12T16:40:14.671Z,67.20
2023-01-12T16:42:42.536Z,67.41
2023-01-12T16:45:11.328Z,66.77
2023-01-12T16:47:39.267Z,66.85
2023-01-12T16:50:07.958Z,67.24
2023-01-12T16:52:35.945Z,67.52
2023-01-12T16:55:05.017Z,67.75
2023-01-12T16:57:34.915Z,66.80
2023-01-12T17:00:03.616Z,66.87
2023-01-12T17:02:32.169Z,66.39
2023-01-12T17:05:00.287Z,66.56
2023-01-12T17:07:28.501Z,67.46
2023-01-12T17:09:56.453Z,66.73
2023-01-12T17:12:24.599Z,66.73
2023-01-12T17:14:54.895Z,66.87
2023-01-12T17:17:23.067Z,67.42
2023-01-12T17:19:51.293Z,67.40
2023-01-12T17:22:19.479Z,68.52
2023-01-12T17:24:47.822Z,68.12
2023-01-12T17:27:15.952Z,68.10
2023-01-12T17:29:43.967Z,67.75
2023-01-12T17:32:13.579Z,68.25
2023-01-12T17:34:43.150Z,68.04
2023-01-12T17:37:11.603Z,67.49
2023-01-12T17:39:41.333Z,68.20
2023-01-12T17:42:28.542Z,67.48
2023-01-12T17:44:56.579Z,67.79
2023-01-12T17:47:26.262Z,67.62
2023-01-12T17:49:55.402Z,68.22
2023-01-12T17:52:23.854Z,67.72
2023-01-12T17:54:51.819Z,68.33
2023-01-12T17:57:19.715Z,67.81
2023-01-12T17:59:49.846Z,67.61
2023-01-12T18:02:18.258Z,67.78
2023-01-12T18:04:47.722Z,67.28
2023-01-12T18:07:15.638Z,68.47
2023-01-12T18:09:43.583Z,68.13
2023-01-12T18:12:12.360Z,67.79
2023-01-12T18:14:40.355Z,68.23
2023-01-12T18:17:09.882Z,67.64
2023-01-12T18:19:37.850Z,68.56
2023-01-12T18:22:07.558Z,68.49
2023-01-12T18:24:35.936Z,67.61
2023-01-12T18:27:04.216Z,68.18
2023-01-12T18:29:32.527Z,67.29
2023-01-12T18:32:00.447Z,68.48
2023-01-12T18:34:29.157Z,67.98
2023-01-12T18:36:57.019Z,67.31
2023-01-12T18:39:26.316Z,67.98
2023-01-12T18:42:11.515Z,68.08
2023-01-12T18:44:39.829Z,67.77
2023-01-12T18:47:25.421Z,67.69
2023-01-12T18:49:57.497Z,67.71
2023-01-12T18:52:43.242Z,68.40
2023-01-12T18:55:12.555Z,66.78
2023-01-12T18:57:40.484Z,66.94
2023-01-12T19:00:15.713Z,67.01
2023-01-12T19:02:44.222Z,66.36
2023-01-12T19:05:20.754Z,67.11
2023-01-12T19:08:04.539Z,67.27
2023-01-12T19:10:34.092Z,66.99
2023-01-12T19:13:19.774Z,67.66
2023-01-12T19:16:05.041Z,67.58
2023-01-12T19:18:35.771Z,66.50
2023-01-12T19:21:34.633Z,66.92
2023-01-12T19:24:20.044Z,66.70
2023-01-12T19:27:06.699Z,66.88
2023-01-12T19:29:35.461Z,66.55
2023-01-12T19:32:03.567Z,66.32
2023-01-12T19:34:31.934Z,66.47
2023-01-12T19:36:59.808Z,66.25
2023-01-12T19:39:46.312Z,66.56
2023-01-12T19:42:33.676Z,67.19
2023-01-12T19:45:01.571Z,66.66
2023-01-12T19:47:29.503Z,68.07
2023-01-12T19:49:58.036Z,68.51
2023-01-12T19:52:26.020Z,69.41
2023-01-12T19:54:53.972Z,70.16
2023-01-12T19:57:23.243Z,71.39
2023-01-12T19:59:51.115Z,71.61
2023-01-12T20:02:19.055Z,72.54
2023-01-12T20:04:46.983Z,74.50
2023-01-12T20:07:14.890Z,75.36
2023-01-12T20:09:42.756Z,77.17
2023-01-12T20:12:10.676Z,77.17
2023-01-12T20:14:39.971Z,76.89
2023-01-12T20:17:08.345Z,77.39
2023-01-12T20:19:36.824Z,77.86
2023-01-12T20:22:04.865Z,77.74
2023-01-12T20:24:32.851Z,78.44
2023-01-12T20:27:00.869Z,78.96
2023-01-12T20:29:28.832Z,79.11
2023-01-12T20:31:58.141Z,78.79
2023-01-12T20:34:26.048Z,78.08
2023-01-12T20:36:53.957Z,80.21
2023-01-12T20:39:24.040Z,80.32
2023-01-12T20:41:51.948Z,80.01
2023-01-12T20:44:20.709Z,80.12
2023-01-12T20:46:48.646Z,80.97
2023-01-12T20:49:18.069Z,81.55
2023-01-12T20:51:46.752Z,81.75
2023-01-12T20:54:14.858Z,81.50
2023-01-12T20:56:43.153Z,80.94
2023-01-12T20:59:11.165Z,82.48
2023-01-12T21:01:39.190Z,81.64
2023-01-12T21:04:07.291Z,82.85
2023-01-12T21:06:36.726Z,82.38
2023-01-12T21:09:05.381Z,83.93
2023-01-12T21:11:33.342Z,82.38
2023-01-12T21:14:01.217Z,82.22
2023-01-12T21:16:30.074Z,82.49
2023-01-12T21:18:58.287Z,83.69
2023-01-12T21:21:26.266Z,82.99
2023-01-12T21:23:55.566Z,83.52
2023-01-12T21:26:23.514Z,83.77
2023-01-12T21:28:51.488Z,82.76
2023-01-12T21:31:19.440Z,84.38
2023-01-12T21:33:47.495Z,84.52
2023-01-12T21:36:17.795Z,84.51
2023-01-12T21:38:49.927Z,83.44
2023-01-12T21:41:21.533Z,84.54
2023-01-12T21:43:50.580Z,83.83
2023-01-12T21:46:20.344Z,84.14
2023-01-12T21:48:48.333Z,85.08
2023-01-12T21:51:18.034Z,84.13
2023-01-12T21:53:45.958Z,84.11
2023-01-12T21:56:14.281Z,83.91
2023-01-12T21:58:43.557Z,83.56
2023-01-12T22:01:13.238Z,84.96
2023-01-12T22:03:41.910Z,83.86
2023-01-12T22:06:11.396Z,85.51
2023-01-12T22:08:41.327Z,85.55
2023-01-12T22:11:11.441Z,85.25
2023-01-12T22:13:40.053Z,84.79
2023-01-12T22:16:12.097Z,84.39
2023-01-12T22:18:40.996Z,84.82
2023-01-12T22:21:11.052Z,84.61
2023-01-12T22:23:39.509Z,84.81
2023-01-12T22:26:09.822Z,84.57
2023-01-12T22:28:39.525Z,84.81
2023-01-12T22:31:10.522Z,84.69
2023-01-12T22:33:39.105Z,85.10
2023-01-12T22:36:08.540Z,85.38
2023-01-12T22:38:36.473Z,85.76
2023-01-12T22:41:05.671Z,84.23
2023-01-12T22:43:38.835Z,83.40
2023-01-12T22:46:06.840Z,85.06
2023-01-12T22:48:36.624Z,84.80
2023-01-12T22:51:05.244Z,84.56
2023-01-12T22:53:33.270Z,83.39
2023-01-12T22:56:01.597Z,83.87
2023-01-12T22:58:29.869Z,83.65
2023-01-12T23:01:03.097Z,83.87
2023-01-12T23:03:31.360Z,85.34
2023-01-12T23:06:00.745Z,86.16
2023-01-12T23:08:28.986Z,84.85
2023-01-12T23:11:04.747Z,84.52
2023-01-12T23:13:32.743Z,85.13
2023-01-12T23:16:04.469Z,85.81
2023-01-12T23:18:34.282Z,84.53
2023-01-12T23:21:09.857Z,87.25
2023-01-12T23:23:38.392Z,87.17
2023-01-12T23:26:08.817Z,85.79
2023-01-12T23:28:41.111Z,84.08
2023-01-12T23:31:11.313Z,84.78
2023-01-12T23:33:41.150Z,85.33
2023-01-12T23:36:13.952Z,85.37
2023-01-12T23:38:42.662Z,84.45
2023-01-12T23:41:12.029Z,84.65
2023-01-12T23:43:40.041Z,84.73
2023-01-12T23:46:08.266Z,83.45
2023-01-12T23:48:36.204Z,84.87
2023-01-12T23:51:04.386Z,83.80
2023-01-12T23:53:33.818Z,83.42
2023-01-12T23:56:05.632Z,84.11
2023-01-12T23:58:33.641Z,84.45
